sensor_id;sensor_type;location;lat;lon;timestamp;P1;durP1;ratioP1;P2;durP2;ratioP2
74108;SDS011;62466;47.566;7.786;2023-04-26T00:01:29;2.47;;;2.38;;
74108;SDS011;62466;47.566;7.786;2023-04-26T00:03:54;4.70;;;2.60;;
74108;SDS011;62466;47.566;7.786;2023-04-26T00:06:21;2.53;;;2.33;;
74108;SDS011;62466;47.566;7.786;2023-04-26T00:08:46;3.38;;;3.08;;
74108;SDS011;62466;47.566;7.786;2023-04-26T00:11:12;5.00;;;4.30;;
74108;SDS011;62466;47.566;7.786;2023-04-26T00:13:37;5.35;;;4.30;;
74108;SDS011;62466;47.566;7.786;2023-04-26T00:16:03;7.40;;;4.65;;
74108;SDS011;62466;47.566;7.786;2023-04-26T00:18:29;7.30;;;5.03;;
74108;SDS011;62466;47.566;7.786;2023-04-26T00:20:55;10.57;;;5.55;;
74108;SDS011;62466;47.566;7.786;2023-04-26T00:23:21;15.40;;;7.68;;
74108;SDS011;62466;47.566;7.786;2023-04-26T00:25:47;17.80;;;9.98;;
74108;SDS011;62466;47.566;7.786;2023-04-26T00:28:12;12.82;;;6.70;;
74108;SDS011;62466;47.566;7.786;2023-04-26T00:30:38;12.80;;;5.90;;
74108;SDS011;62466;47.566;7.786;2023-04-26T00:33:07;12.98;;;6.82;;
74108;SDS011;62466;47.566;7.786;2023-04-26T00:35:32;9.57;;;6.60;;
74108;SDS011;62466;47.566;7.786;2023-04-26T00:37:57;9.80;;;6.70;;
74108;SDS011;62466;47.566;7.786;2023-04-26T00:40:23;7.68;;;5.75;;
74108;SDS011;62466;47.566;7.786;2023-04-26T00:42:48;10.07;;;5.15;;
74108;SDS011;62466;47.566;7.786;2023-04-26T00:45:21;7.93;;;6.03;;
74108;SDS011;62466;47.566;7.786;2023-04-26T00:47:47;5.25;;;3.80;;
74108;SDS011;62466;47.566;7.786;2023-04-26T00:50:14;3.70;;;3.40;;
74108;SDS011;62466;47.566;7.786;2023-04-26T00:52:40;3.60;;;3.30;;
74108;SDS011;62466;47.566;7.786;2023-04-26T00:55:06;4.63;;;3.17;;
74108;SDS011;62466;47.566;7.786;2023-04-26T00:57:32;4.20;;;3.80;;
74108;SDS011;62466;47.566;7.786;2023-04-26T00:59:57;5.53;;;3.78;;
74108;SDS011;62466;47.566;7.786;2023-04-26T01:02:22;5.93;;;4.18;;
74108;SDS011;62466;47.566;7.786;2023-04-26T01:04:48;4.72;;;4.15;;
74108;SDS011;62466;47.566;7.786;2023-04-26T01:07:15;5.95;;;4.57;;
74108;SDS011;62466;47.566;7.786;2023-04-26T01:09:40;6.65;;;4.60;;
74108;SDS011;62466;47.566;7.786;2023-04-26T01:12:07;8.35;;;5.10;;
74108;SDS011;62466;47.566;7.786;2023-04-26T01:14:33;7.63;;;5.32;;
74108;SDS011;62466;47.566;7.786;2023-04-26T01:17:01;14.13;;;5.80;;
74108;SDS011;62466;47.566;7.786;2023-04-26T01:19:27;12.70;;;7.70;;
74108;SDS011;62466;47.566;7.786;2023-04-26T01:21:53;12.18;;;6.50;;
74108;SDS011;62466;47.566;7.786;2023-04-26T01:24:19;12.90;;;7.55;;
74108;SDS011;62466;47.566;7.786;2023-04-26T01:26:45;21.27;;;9.02;;
74108;SDS011;62466;47.566;7.786;2023-04-26T01:29:20;20.52;;;8.40;;
74108;SDS011;62466;47.566;7.786;2023-04-26T01:31:46;14.07;;;6.78;;
74108;SDS011;62466;47.566;7.786;2023-04-26T01:34:12;11.38;;;7.00;;
74108;SDS011;62466;47.566;7.786;2023-04-26T01:36:38;12.10;;;5.95;;
74108;SDS011;62466;47.566;7.786;2023-04-26T01:39:04;11.75;;;6.80;;
74108;SDS011;62466;47.566;7.786;2023-04-26T01:41:30;8.68;;;5.88;;
74108;SDS011;62466;47.566;7.786;2023-04-26T01:43:58;9.68;;;5.60;;
74108;SDS011;62466;47.566;7.786;2023-04-26T01:46:24;8.10;;;5.65;;
74108;SDS011;62466;47.566;7.786;2023-04-26T01:48:50;16.55;;;7.05;;
74108;SDS011;62466;47.566;7.786;2023-04-26T01:51:16;13.52;;;7.00;;
74108;SDS011;62466;47.566;7.786;2023-04-26T01:53:41;11.15;;;6.70;;
74108;SDS011;62466;47.566;7.786;2023-04-26T01:56:07;12.55;;;7.80;;
74108;SDS011;62466;47.566;7.786;2023-04-26T01:58:32;10.85;;;6.68;;
74108;SDS011;62466;47.566;7.786;2023-04-26T02:01:05;7.53;;;4.70;;
74108;SDS011;62466;47.566;7.786;2023-04-26T02:03:32;7.60;;;4.55;;
74108;SDS011;62466;47.566;7.786;2023-04-26T02:05:57;4.75;;;3.70;;
74108;SDS011;62466;47.566;7.786;2023-04-26T02:08:24;10.38;;;5.28;;
74108;SDS011;62466;47.566;7.786;2023-04-26T02:10:50;8.23;;;4.93;;
74108;SDS011;62466;47.566;7.786;2023-04-26T02:13:15;8.25;;;5.70;;
74108;SDS011;62466;47.566;7.786;2023-04-26T02:15:44;9.77;;;5.40;;
74108;SDS011;62466;47.566;7.786;2023-04-26T02:18:11;7.72;;;5.13;;
74108;SDS011;62466;47.566;7.786;2023-04-26T02:20:39;12.10;;;6.32;;
74108;SDS011;62466;47.566;7.786;2023-04-26T02:23:07;15.10;;;7.20;;
74108;SDS011;62466;47.566;7.786;2023-04-26T02:25:33;29.40;;;8.43;;
74108;SDS011;62466;47.566;7.786;2023-04-26T02:27:59;19.80;;;7.63;;
74108;SDS011;62466;47.566;7.786;2023-04-26T02:30:26;19.83;;;8.32;;
74108;SDS011;62466;47.566;7.786;2023-04-26T02:32:55;25.70;;;10.07;;
74108;SDS011;62466;47.566;7.786;2023-04-26T02:35:21;20.65;;;10.40;;
74108;SDS011;62466;47.566;7.786;2023-04-26T02:37:47;28.38;;;11.07;;
74108;SDS011;62466;47.566;7.786;2023-04-26T02:40:17;30.38;;;11.88;;
74108;SDS011;62466;47.566;7.786;2023-04-26T02:42:43;35.45;;;12.43;;
74108;SDS011;62466;47.566;7.786;2023-04-26T02:45:09;27.17;;;11.35;;
74108;SDS011;62466;47.566;7.786;2023-04-26T02:47:35;31.45;;;10.60;;
74108;SDS011;62466;47.566;7.786;2023-04-26T02:50:03;26.25;;;9.88;;
74108;SDS011;62466;47.566;7.786;2023-04-26T02:52:30;23.75;;;9.48;;
74108;SDS011;62466;47.566;7.786;2023-04-26T02:54:56;27.13;;;11.13;;
74108;SDS011;62466;47.566;7.786;2023-04-26T02:57:21;28.70;;;11.48;;
74108;SDS011;62466;47.566;7.786;2023-04-26T02:59:48;32.08;;;12.90;;
74108;SDS011;62466;47.566;7.786;2023-04-26T03:02:14;48.78;;;17.35;;
74108;SDS011;62466;47.566;7.786;2023-04-26T03:04:40;33.92;;;15.07;;
74108;SDS011;62466;47.566;7.786;2023-04-26T03:07:06;24.20;;;10.93;;
74108;SDS011;62466;47.566;7.786;2023-04-26T03:09:32;27.92;;;11.50;;
74108;SDS011;62466;47.566;7.786;2023-04-26T03:11:59;18.25;;;9.07;;
74108;SDS011;62466;47.566;7.786;2023-04-26T03:14:25;16.48;;;8.93;;
74108;SDS011;62466;47.566;7.786;2023-04-26T03:16:51;14.15;;;6.80;;
74108;SDS011;62466;47.566;7.786;2023-04-26T03:19:17;11.50;;;6.28;;
74108;SDS011;62466;47.566;7.786;2023-04-26T03:21:44;10.50;;;6.22;;
74108;SDS011;62466;47.566;7.786;2023-04-26T03:24:10;11.15;;;5.53;;
74108;SDS011;62466;47.566;7.786;2023-04-26T03:26:35;12.32;;;5.93;;
74108;SDS011;62466;47.566;7.786;2023-04-26T03:29:01;14.52;;;6.30;;
74108;SDS011;62466;47.566;7.786;2023-04-26T03:31:27;23.73;;;6.90;;
74108;SDS011;62466;47.566;7.786;2023-04-26T03:33:53;24.58;;;8.50;;
74108;SDS011;62466;47.566;7.786;2023-04-26T03:36:19;26.02;;;9.00;;
74108;SDS011;62466;47.566;7.786;2023-04-26T03:38:44;30.30;;;8.75;;
74108;SDS011;62466;47.566;7.786;2023-04-26T03:41:11;18.40;;;7.65;;
74108;SDS011;62466;47.566;7.786;2023-04-26T03:43:37;11.75;;;5.88;;
74108;SDS011;62466;47.566;7.786;2023-04-26T03:46:04;11.73;;;5.43;;
74108;SDS011;62466;47.566;7.786;2023-04-26T03:48:29;6.57;;;3.90;;
74108;SDS011;62466;47.566;7.786;2023-04-26T03:50:55;8.13;;;4.80;;
74108;SDS011;62466;47.566;7.786;2023-04-26T03:53:21;8.82;;;5.68;;
74108;SDS011;62466;47.566;7.786;2023-04-26T03:55:47;11.13;;;6.13;;
74108;SDS011;62466;47.566;7.786;2023-04-26T03:58:13;11.57;;;6.20;;
74108;SDS011;62466;47.566;7.786;2023-04-26T04:00:39;11.43;;;6.95;;
74108;SDS011;62466;47.566;7.786;2023-04-26T04:03:08;11.35;;;5.15;;
74108;SDS011;62466;47.566;7.786;2023-04-26T04:05:34;10.57;;;4.95;;
74108;SDS011;62466;47.566;7.786;2023-04-26T04:07:59;8.57;;;5.10;;
74108;SDS011;62466;47.566;7.786;2023-04-26T04:10:25;10.15;;;4.82;;
74108;SDS011;62466;47.566;7.786;2023-04-26T04:12:52;9.23;;;5.32;;
74108;SDS011;62466;47.566;7.786;2023-04-26T04:15:19;10.43;;;5.55;;
74108;SDS011;62466;47.566;7.786;2023-04-26T04:17:46;10.02;;;5.15;;
74108;SDS011;62466;47.566;7.786;2023-04-26T04:20:11;9.75;;;5.50;;
74108;SDS011;62466;47.566;7.786;2023-04-26T04:22:37;9.10;;;5.57;;
74108;SDS011;62466;47.566;7.786;2023-04-26T04:25:09;22.65;;;8.95;;
74108;SDS011;62466;47.566;7.786;2023-04-26T04:27:35;17.13;;;7.43;;
74108;SDS011;62466;47.566;7.786;2023-04-26T04:30:04;11.82;;;5.90;;
74108;SDS011;62466;47.566;7.786;2023-04-26T04:32:32;8.45;;;4.95;;
74108;SDS011;62466;47.566;7.786;2023-04-26T04:34:58;5.65;;;4.30;;
74108;SDS011;62466;47.566;7.786;2023-04-26T04:37:24;6.82;;;4.40;;
74108;SDS011;62466;47.566;7.786;2023-04-26T04:39:51;6.22;;;3.80;;
74108;SDS011;62466;47.566;7.786;2023-04-26T04:42:17;7.30;;;4.25;;
74108;SDS011;62466;47.566;7.786;2023-04-26T04:44:43;5.40;;;4.03;;
74108;SDS011;62466;47.566;7.786;2023-04-26T04:47:10;6.75;;;4.30;;
74108;SDS011;62466;47.566;7.786;2023-04-26T04:49:36;7.80;;;5.07;;
74108;SDS011;62466;47.566;7.786;2023-04-26T04:52:01;11.88;;;5.55;;
74108;SDS011;62466;47.566;7.786;2023-04-26T04:54:27;9.82;;;5.30;;
74108;SDS011;62466;47.566;7.786;2023-04-26T04:56:53;13.77;;;6.05;;
74108;SDS011;62466;47.566;7.786;2023-04-26T04:59:18;15.45;;;5.72;;
74108;SDS011;62466;47.566;7.786;2023-04-26T05:01:46;10.45;;;5.80;;
74108;SDS011;62466;47.566;7.786;2023-04-26T05:04:13;15.07;;;6.43;;
74108;SDS011;62466;47.566;7.786;2023-04-26T05:06:38;13.88;;;6.60;;
74108;SDS011;62466;47.566;7.786;2023-04-26T05:09:04;13.32;;;6.72;;
74108;SDS011;62466;47.566;7.786;2023-04-26T05:11:31;12.85;;;8.02;;
74108;SDS011;62466;47.566;7.786;2023-04-26T05:13:57;10.98;;;7.05;;
74108;SDS011;62466;47.566;7.786;2023-04-26T05:16:23;14.20;;;7.57;;
74108;SDS011;62466;47.566;7.786;2023-04-26T05:18:49;11.43;;;7.43;;
74108;SDS011;62466;47.566;7.786;2023-04-26T05:21:16;16.40;;;8.95;;
74108;SDS011;62466;47.566;7.786;2023-04-26T05:23:42;14.57;;;8.77;;
74108;SDS011;62466;47.566;7.786;2023-04-26T05:26:11;11.30;;;7.45;;
74108;SDS011;62466;47.566;7.786;2023-04-26T05:28:54;10.35;;;6.93;;
74108;SDS011;62466;47.566;7.786;2023-04-26T05:31:46;13.40;;;7.38;;
74108;SDS011;62466;47.566;7.786;2023-04-26T05:34:42;9.40;;;6.57;;
74108;SDS011;62466;47.566;7.786;2023-04-26T05:37:13;14.02;;;7.68;;
74108;SDS011;62466;47.566;7.786;2023-04-26T05:39:38;9.25;;;6.65;;
74108;SDS011;62466;47.566;7.786;2023-04-26T05:42:03;10.48;;;7.22;;
74108;SDS011;62466;47.566;7.786;2023-04-26T05:44:32;12.15;;;6.32;;
74108;SDS011;62466;47.566;7.786;2023-04-26T05:46:58;11.80;;;7.65;;
74108;SDS011;62466;47.566;7.786;2023-04-26T05:49:25;12.25;;;8.52;;
74108;SDS011;62466;47.566;7.786;2023-04-26T05:51:50;11.52;;;7.03;;
74108;SDS011;62466;47.566;7.786;2023-04-26T05:54:16;11.10;;;6.55;;
74108;SDS011;62466;47.566;7.786;2023-04-26T05:56:41;9.43;;;5.88;;
74108;SDS011;62466;47.566;7.786;2023-04-26T05:59:08;6.05;;;5.45;;
74108;SDS011;62466;47.566;7.786;2023-04-26T06:01:33;8.88;;;6.03;;
74108;SDS011;62466;47.566;7.786;2023-04-26T06:04:01;8.40;;;5.63;;
74108;SDS011;62466;47.566;7.786;2023-04-26T06:06:31;5.47;;;4.80;;
74108;SDS011;62466;47.566;7.786;2023-04-26T06:08:57;7.28;;;5.20;;
74108;SDS011;62466;47.566;7.786;2023-04-26T06:12:07;5.40;;;4.70;;
74108;SDS011;62466;47.566;7.786;2023-04-26T06:14:38;7.10;;;5.15;;
74108;SDS011;62466;47.566;7.786;2023-04-26T06:17:55;5.47;;;4.97;;
74108;SDS011;62466;47.566;7.786;2023-04-26T06:20:46;7.40;;;5.38;;
74108;SDS011;62466;47.566;7.786;2023-04-26T06:23:12;8.10;;;5.60;;
74108;SDS011;62466;47.566;7.786;2023-04-26T06:25:37;7.35;;;5.55;;
74108;SDS011;62466;47.566;7.786;2023-04-26T06:28:10;9.63;;;5.68;;
74108;SDS011;62466;47.566;7.786;2023-04-26T06:30:37;13.10;;;6.95;;
74108;SDS011;62466;47.566;7.786;2023-04-26T06:33:03;12.80;;;6.25;;
74108;SDS011;62466;47.566;7.786;2023-04-26T06:35:29;11.75;;;5.82;;
74108;SDS011;62466;47.566;7.786;2023-04-26T06:37:55;10.27;;;5.43;;
74108;SDS011;62466;47.566;7.786;2023-04-26T06:40:21;19.15;;;8.98;;
74108;SDS011;62466;47.566;7.786;2023-04-26T06:42:46;21.55;;;8.10;;
74108;SDS011;62466;47.566;7.786;2023-04-26T06:45:15;11.50;;;6.13;;
74108;SDS011;62466;47.566;7.786;2023-04-26T06:47:42;14.25;;;8.25;;
74108;SDS011;62466;47.566;7.786;2023-04-26T06:50:09;21.48;;;9.20;;
74108;SDS011;62466;47.566;7.786;2023-04-26T06:52:34;28.85;;;11.70;;
74108;SDS011;62466;47.566;7.786;2023-04-26T06:55:00;12.15;;;8.02;;
74108;SDS011;62466;47.566;7.786;2023-04-26T06:57:27;11.18;;;7.10;;
74108;SDS011;62466;47.566;7.786;2023-04-26T06:59:53;8.90;;;6.93;;
74108;SDS011;62466;47.566;7.786;2023-04-26T07:02:18;6.72;;;5.38;;
74108;SDS011;62466;47.566;7.786;2023-04-26T07:04:43;6.43;;;5.00;;
74108;SDS011;62466;47.566;7.786;2023-04-26T07:07:09;6.03;;;4.78;;
74108;SDS011;62466;47.566;7.786;2023-04-26T07:09:35;12.50;;;7.38;;
74108;SDS011;62466;47.566;7.786;2023-04-26T07:12:01;9.95;;;6.22;;
74108;SDS011;62466;47.566;7.786;2023-04-26T07:14:26;8.32;;;5.20;;
74108;SDS011;62466;47.566;7.786;2023-04-26T07:16:52;8.38;;;6.22;;
74108;SDS011;62466;47.566;7.786;2023-04-26T07:19:17;13.98;;;7.50;;
74108;SDS011;62466;47.566;7.786;2023-04-26T07:21:43;10.18;;;7.43;;
74108;SDS011;62466;47.566;7.786;2023-04-26T07:24:09;8.23;;;6.15;;
74108;SDS011;62466;47.566;7.786;2023-04-26T07:26:34;6.50;;;5.60;;
74108;SDS011;62466;47.566;7.786;2023-04-26T07:29:02;7.35;;;5.47;;
74108;SDS011;62466;47.566;7.786;2023-04-26T07:31:29;5.60;;;4.50;;
74108;SDS011;62466;47.566;7.786;2023-04-26T07:33:55;6.68;;;4.85;;
74108;SDS011;62466;47.566;7.786;2023-04-26T07:36:21;7.13;;;5.50;;
74108;SDS011;62466;47.566;7.786;2023-04-26T07:38:46;9.88;;;6.97;;
74108;SDS011;62466;47.566;7.786;2023-04-26T07:41:11;11.63;;;7.15;;
74108;SDS011;62466;47.566;7.786;2023-04-26T07:43:37;10.68;;;7.45;;
74108;SDS011;62466;47.566;7.786;2023-04-26T07:46:04;11.10;;;6.00;;
74108;SDS011;62466;47.566;7.786;2023-04-26T07:48:29;4.20;;;3.75;;
74108;SDS011;62466;47.566;7.786;2023-04-26T07:50:55;5.93;;;4.47;;
74108;SDS011;62466;47.566;7.786;2023-04-26T07:53:21;8.57;;;5.28;;
74108;SDS011;62466;47.566;7.786;2023-04-26T07:55:46;8.73;;;6.35;;
74108;SDS011;62466;47.566;7.786;2023-04-26T07:58:12;6.13;;;5.47;;
74108;SDS011;62466;47.566;7.786;2023-04-26T08:00:39;10.20;;;6.78;;
74108;SDS011;62466;47.566;7.786;2023-04-26T08:03:05;8.98;;;6.75;;
74108;SDS011;62466;47.566;7.786;2023-04-26T08:05:30;8.88;;;5.13;;
74108;SDS011;62466;47.566;7.786;2023-04-26T08:07:56;9.45;;;5.68;;
74108;SDS011;62466;47.566;7.786;2023-04-26T08:10:21;5.85;;;4.38;;
74108;SDS011;62466;47.566;7.786;2023-04-26T08:12:47;9.02;;;5.72;;
74108;SDS011;62466;47.566;7.786;2023-04-26T08:15:12;7.53;;;4.68;;
74108;SDS011;62466;47.566;7.786;2023-04-26T08:17:38;4.45;;;4.00;;
74108;SDS011;62466;47.566;7.786;2023-04-26T08:20:03;5.75;;;4.28;;
74108;SDS011;62466;47.566;7.786;2023-04-26T08:22:33;6.63;;;4.60;;
74108;SDS011;62466;47.566;7.786;2023-04-26T08:24:58;7.90;;;4.35;;
74108;SDS011;62466;47.566;7.786;2023-04-26T08:27:24;7.38;;;6.03;;
74108;SDS011;62466;47.566;7.786;2023-04-26T08:29:50;10.00;;;6.97;;
74108;SDS011;62466;47.566;7.786;2023-04-26T08:32:15;8.68;;;4.55;;
74108;SDS011;62466;47.566;7.786;2023-04-26T08:34:41;7.18;;;4.72;;
74108;SDS011;62466;47.566;7.786;2023-04-26T08:37:06;14.43;;;5.80;;
74108;SDS011;62466;47.566;7.786;2023-04-26T08:39:32;14.52;;;6.40;;
74108;SDS011;62466;47.566;7.786;2023-04-26T08:41:58;10.20;;;4.35;;
74108;SDS011;62466;47.566;7.786;2023-04-26T08:44:29;20.80;;;6.45;;
74108;SDS011;62466;47.566;7.786;2023-04-26T08:49:40;7.28;;;5.55;;
74108;SDS011;62466;47.566;7.786;2023-04-26T08:52:07;10.73;;;4.85;;
74108;SDS011;62466;47.566;7.786;2023-04-26T08:54:35;11.40;;;5.72;;
74108;SDS011;62466;47.566;7.786;2023-04-26T08:57:01;50.17;;;10.55;;
74108;SDS011;62466;47.566;7.786;2023-04-26T08:59:31;39.92;;;9.60;;
74108;SDS011;62466;47.566;7.786;2023-04-26T09:01:57;44.92;;;10.73;;
74108;SDS011;62466;47.566;7.786;2023-04-26T09:04:24;63.97;;;13.05;;
74108;SDS011;62466;47.566;7.786;2023-04-26T09:06:49;42.53;;;10.07;;
74108;SDS011;62466;47.566;7.786;2023-04-26T09:09:17;35.53;;;9.05;;
74108;SDS011;62466;47.566;7.786;2023-04-26T09:11:54;28.55;;;8.23;;
74108;SDS011;62466;47.566;7.786;2023-04-26T09:14:20;43.88;;;10.75;;
74108;SDS011;62466;47.566;7.786;2023-04-26T09:16:46;21.33;;;7.03;;
74108;SDS011;62466;47.566;7.786;2023-04-26T09:19:12;14.18;;;6.57;;
74108;SDS011;62466;47.566;7.786;2023-04-26T09:21:44;17.23;;;6.00;;
74108;SDS011;62466;47.566;7.786;2023-04-26T09:24:10;17.77;;;6.68;;
74108;SDS011;62466;47.566;7.786;2023-04-26T09:26:36;24.55;;;7.47;;
74108;SDS011;62466;47.566;7.786;2023-04-26T09:29:15;18.35;;;6.90;;
74108;SDS011;62466;47.566;7.786;2023-04-26T09:31:43;14.45;;;6.22;;
74108;SDS011;62466;47.566;7.786;2023-04-26T09:34:10;10.32;;;4.97;;
74108;SDS011;62466;47.566;7.786;2023-04-26T09:36:55;10.52;;;5.65;;
74108;SDS011;62466;47.566;7.786;2023-04-26T09:42:07;10.55;;;5.50;;
74108;SDS011;62466;47.566;7.786;2023-04-26T09:44:34;10.82;;;5.40;;
74108;SDS011;62466;47.566;7.786;2023-04-26T09:49:30;10.23;;;4.65;;
74108;SDS011;62466;47.566;7.786;2023-04-26T09:52:01;8.27;;;4.57;;
74108;SDS011;62466;47.566;7.786;2023-04-26T09:54:37;9.85;;;4.65;;
74108;SDS011;62466;47.566;7.786;2023-04-26T09:57:13;8.93;;;4.28;;
74108;SDS011;62466;47.566;7.786;2023-04-26T10:02:20;8.18;;;4.03;;
74108;SDS011;62466;47.566;7.786;2023-04-26T10:04:48;11.88;;;4.85;;
74108;SDS011;62466;47.566;7.786;2023-04-26T10:07:16;9.32;;;4.22;;
74108;SDS011;62466;47.566;7.786;2023-04-26T10:09:43;8.35;;;4.50;;
74108;SDS011;62466;47.566;7.786;2023-04-26T10:12:09;6.32;;;3.83;;
74108;SDS011;62466;47.566;7.786;2023-04-26T10:14:35;6.43;;;3.42;;
74108;SDS011;62466;47.566;7.786;2023-04-26T10:17:02;7.95;;;3.90;;
74108;SDS011;62466;47.566;7.786;2023-04-26T10:19:28;7.63;;;3.63;;
74108;SDS011;62466;47.566;7.786;2023-04-26T10:21:55;5.10;;;3.83;;
74108;SDS011;62466;47.566;7.786;2023-04-26T10:24:24;8.23;;;4.07;;
74108;SDS011;62466;47.566;7.786;2023-04-26T10:26:51;5.85;;;2.95;;
74108;SDS011;62466;47.566;7.786;2023-04-26T10:29:25;4.75;;;2.40;;
74108;SDS011;62466;47.566;7.786;2023-04-26T10:34:27;8.70;;;3.47;;
74108;SDS011;62466;47.566;7.786;2023-04-26T10:37:04;5.38;;;2.85;;
74108;SDS011;62466;47.566;7.786;2023-04-26T10:39:48;5.68;;;3.05;;
74108;SDS011;62466;47.566;7.786;2023-04-26T10:44:58;8.85;;;2.58;;
74108;SDS011;62466;47.566;7.786;2023-04-26T10:47:31;4.60;;;2.42;;
74108;SDS011;62466;47.566;7.786;2023-04-26T10:50:08;6.97;;;2.53;;
74108;SDS011;62466;47.566;7.786;2023-04-26T10:52:35;4.78;;;2.47;;
74108;SDS011;62466;47.566;7.786;2023-04-26T10:55:02;5.05;;;2.80;;
74108;SDS011;62466;47.566;7.786;2023-04-26T11:02:57;4.55;;;2.90;;
74108;SDS011;62466;47.566;7.786;2023-04-26T11:08:05;4.25;;;2.70;;
74108;SDS011;62466;47.566;7.786;2023-04-26T11:10:50;3.75;;;2.70;;
74108;SDS011;62466;47.566;7.786;2023-04-26T11:13:21;8.35;;;3.03;;
74108;SDS011;62466;47.566;7.786;2023-04-26T11:15:46;6.70;;;2.72;;
74108;SDS011;62466;47.566;7.786;2023-04-26T11:18:20;5.07;;;2.75;;
74108;SDS011;62466;47.566;7.786;2023-04-26T11:20:46;4.53;;;2.20;;
74108;SDS011;62466;47.566;7.786;2023-04-26T11:23:12;4.40;;;2.42;;
74108;SDS011;62466;47.566;7.786;2023-04-26T11:25:38;2.88;;;2.45;;
74108;SDS011;62466;47.566;7.786;2023-04-26T11:28:03;4.05;;;2.40;;
74108;SDS011;62466;47.566;7.786;2023-04-26T11:30:33;4.70;;;2.22;;
74108;SDS011;62466;47.566;7.786;2023-04-26T11:32:58;3.35;;;2.35;;
74108;SDS011;62466;47.566;7.786;2023-04-26T11:35:25;2.92;;;2.22;;
74108;SDS011;62466;47.566;7.786;2023-04-26T11:37:51;3.80;;;2.03;;
74108;SDS011;62466;47.566;7.786;2023-04-26T11:40:17;4.93;;;2.53;;
74108;SDS011;62466;47.566;7.786;2023-04-26T11:42:43;4.20;;;2.50;;
74108;SDS011;62466;47.566;7.786;2023-04-26T11:45:09;2.78;;;2.45;;
74108;SDS011;62466;47.566;7.786;2023-04-26T11:47:35;4.35;;;2.20;;
74108;SDS011;62466;47.566;7.786;2023-04-26T11:50:01;2.45;;;2.25;;
74108;SDS011;62466;47.566;7.786;2023-04-26T11:52:27;2.53;;;2.30;;
74108;SDS011;62466;47.566;7.786;2023-04-26T11:55:03;3.83;;;2.33;;
74108;SDS011;62466;47.566;7.786;2023-04-26T11:57:30;5.57;;;2.65;;
74108;SDS011;62466;47.566;7.786;2023-04-26T12:00:10;5.88;;;2.10;;
74108;SDS011;62466;47.566;7.786;2023-04-26T12:02:46;2.03;;;1.80;;
74108;SDS011;62466;47.566;7.786;2023-04-26T12:05:25;4.10;;;1.80;;
74108;SDS011;62466;47.566;7.786;2023-04-26T12:07:55;2.83;;;2.00;;
74108;SDS011;62466;47.566;7.786;2023-04-26T12:10:26;2.45;;;2.25;;
74108;SDS011;62466;47.566;7.786;2023-04-26T12:12:53;4.38;;;2.30;;
74108;SDS011;62466;47.566;7.786;2023-04-26T12:15:23;2.17;;;1.92;;
74108;SDS011;62466;47.566;7.786;2023-04-26T12:17:53;2.22;;;1.95;;
74108;SDS011;62466;47.566;7.786;2023-04-26T12:20:24;3.17;;;2.00;;
74108;SDS011;62466;47.566;7.786;2023-04-26T12:22:57;2.95;;;2.10;;
74108;SDS011;62466;47.566;7.786;2023-04-26T12:25:23;3.75;;;1.60;;
74108;SDS011;62466;47.566;7.786;2023-04-26T12:27:49;2.53;;;1.58;;
74108;SDS011;62466;47.566;7.786;2023-04-26T12:30:15;2.17;;;1.98;;
74108;SDS011;62466;47.566;7.786;2023-04-26T12:32:40;2.22;;;2.00;;
74108;SDS011;62466;47.566;7.786;2023-04-26T12:35:06;3.03;;;1.60;;
74108;SDS011;62466;47.566;7.786;2023-04-26T12:37:32;2.35;;;1.58;;
74108;SDS011;62466;47.566;7.786;2023-04-26T12:39:57;3.10;;;2.00;;
74108;SDS011;62466;47.566;7.786;2023-04-26T12:42:23;3.60;;;1.98;;
74108;SDS011;62466;47.566;7.786;2023-04-26T12:44:49;4.03;;;1.60;;
74108;SDS011;62466;47.566;7.786;2023-04-26T12:47:14;4.35;;;2.00;;
74108;SDS011;62466;47.566;7.786;2023-04-26T12:49:40;2.67;;;1.60;;
74108;SDS011;62466;47.566;7.786;2023-04-26T12:52:05;2.58;;;1.83;;
74108;SDS011;62466;47.566;7.786;2023-04-26T12:54:31;1.85;;;1.70;;
74108;SDS011;62466;47.566;7.786;2023-04-26T12:56:57;3.17;;;1.88;;
74108;SDS011;62466;47.566;7.786;2023-04-26T12:59:22;4.57;;;1.92;;
74108;SDS011;62466;47.566;7.786;2023-04-26T13:01:48;2.30;;;1.58;;
74108;SDS011;62466;47.566;7.786;2023-04-26T13:04:13;1.60;;;1.30;;
74108;SDS011;62466;47.566;7.786;2023-04-26T13:06:39;2.65;;;1.30;;
74108;SDS011;62466;47.566;7.786;2023-04-26T13:09:04;3.63;;;1.80;;
74108;SDS011;62466;47.566;7.786;2023-04-26T13:11:32;2.28;;;1.50;;
74108;SDS011;62466;47.566;7.786;2023-04-26T13:13:57;2.92;;;1.75;;
74108;SDS011;62466;47.566;7.786;2023-04-26T13:16:23;2.75;;;1.50;;
74108;SDS011;62466;47.566;7.786;2023-04-26T13:18:50;3.35;;;2.20;;
74108;SDS011;62466;47.566;7.786;2023-04-26T13:21:15;3.15;;;2.00;;
74108;SDS011;62466;47.566;7.786;2023-04-26T13:23:40;3.83;;;2.15;;
74108;SDS011;62466;47.566;7.786;2023-04-26T13:26:06;1.70;;;1.60;;
74108;SDS011;62466;47.566;7.786;2023-04-26T13:28:31;2.53;;;1.85;;
74108;SDS011;62466;47.566;7.786;2023-04-26T13:30:57;3.20;;;1.67;;
74108;SDS011;62466;47.566;7.786;2023-04-26T13:33:26;4.65;;;2.20;;
74108;SDS011;62466;47.566;7.786;2023-04-26T13:35:52;4.05;;;1.90;;
74108;SDS011;62466;47.566;7.786;2023-04-26T13:38:17;2.67;;;1.75;;
74108;SDS011;62466;47.566;7.786;2023-04-26T13:40:43;2.78;;;1.85;;
74108;SDS011;62466;47.566;7.786;2023-04-26T13:43:11;1.88;;;1.50;;
74108;SDS011;62466;47.566;7.786;2023-04-26T13:45:36;1.98;;;1.45;;
74108;SDS011;62466;47.566;7.786;2023-04-26T13:48:02;1.98;;;1.80;;
74108;SDS011;62466;47.566;7.786;2023-04-26T13:50:27;2.28;;;1.90;;
74108;SDS011;62466;47.566;7.786;2023-04-26T13:52:53;3.97;;;1.75;;
74108;SDS011;62466;47.566;7.786;2023-04-26T13:55:18;2.80;;;1.60;;
74108;SDS011;62466;47.566;7.786;2023-04-26T13:57:44;3.22;;;1.70;;
74108;SDS011;62466;47.566;7.786;2023-04-26T14:00:09;3.38;;;1.38;;
74108;SDS011;62466;47.566;7.786;2023-04-26T14:02:38;6.15;;;1.65;;
74108;SDS011;62466;47.566;7.786;2023-04-26T14:05:04;2.05;;;1.10;;
74108;SDS011;62466;47.566;7.786;2023-04-26T14:07:29;3.42;;;2.00;;
74108;SDS011;62466;47.566;7.786;2023-04-26T14:09:55;2.50;;;1.50;;
74108;SDS011;62466;47.566;7.786;2023-04-26T14:12:20;2.60;;;2.15;;
74108;SDS011;62466;47.566;7.786;2023-04-26T14:14:46;3.45;;;2.00;;
74108;SDS011;62466;47.566;7.786;2023-04-26T14:17:12;2.30;;;1.42;;
74108;SDS011;62466;47.566;7.786;2023-04-26T14:19:38;2.30;;;1.33;;
74108;SDS011;62466;47.566;7.786;2023-04-26T14:22:03;4.18;;;1.95;;
74108;SDS011;62466;47.566;7.786;2023-04-26T14:24:29;2.60;;;2.00;;
74108;SDS011;62466;47.566;7.786;2023-04-26T14:26:54;5.15;;;1.98;;
74108;SDS011;62466;47.566;7.786;2023-04-26T14:29:19;4.18;;;2.25;;
74108;SDS011;62466;47.566;7.786;2023-04-26T14:31:45;2.55;;;2.10;;
74108;SDS011;62466;47.566;7.786;2023-04-26T14:34:11;4.88;;;2.35;;
74108;SDS011;62466;47.566;7.786;2023-04-26T14:36:37;5.45;;;2.22;;
74108;SDS011;62466;47.566;7.786;2023-04-26T14:39:02;2.88;;;2.42;;
74108;SDS011;62466;47.566;7.786;2023-04-26T14:41:30;3.33;;;2.30;;
74108;SDS011;62466;47.566;7.786;2023-04-26T14:43:56;4.45;;;2.20;;
74108;SDS011;62466;47.566;7.786;2023-04-26T14:46:22;3.38;;;2.47;;
74108;SDS011;62466;47.566;7.786;2023-04-26T14:48:47;2.92;;;2.03;;
74108;SDS011;62466;47.566;7.786;2023-04-26T14:51:13;1.65;;;1.48;;
74108;SDS011;62466;47.566;7.786;2023-04-26T14:53:38;4.60;;;2.47;;
74108;SDS011;62466;47.566;7.786;2023-04-26T14:56:04;3.13;;;2.40;;
74108;SDS011;62466;47.566;7.786;2023-04-26T14:58:31;3.17;;;2.33;;
74108;SDS011;62466;47.566;7.786;2023-04-26T15:00:57;3.45;;;2.83;;
74108;SDS011;62466;47.566;7.786;2023-04-26T15:03:22;3.17;;;2.50;;
74108;SDS011;62466;47.566;7.786;2023-04-26T15:05:48;3.45;;;2.72;;